Terminal Aerodrome Forecast
Issued by NWS

Home | Current Version | Previous Version | Text Only | Print | Product List | Glossary On
Versions: 1 2 3 4 5 6 7 8 9 10 11 12 13 14 15 16
000
FTAK31 PANC 051139
TAFAEN
TAF
PAEN 051139Z 0512/0612 06009KT P6SM SCT060 BKN100
     FM051800 05016G23KT P6SM VCSH SCT050 BKN080
     FM060000 03018G26KT P6SM -SHRA SCT040 OVC060
     FM060700 03009KT P6SM -RA BKN040=

USA.gov is the U.S. government's official web portal to all federal, state and local government web resources and services.